Time;durP1;ratioP1;P1;durP2;ratioP2;P2;SDS_P1;SDS_P2;PMS_P1;PMS_P2;Temp;Humidity;BMP_temperature;BMP_pressure;BME280_temperature;BME280_humidity;BME280_pressure;Samples;Min_cycle;Max_cycle;Signal;HPM_P1;HPM_P2
2022/02/10 00:21:45;;;;;;;11.60;6.17;;;5.20;99.90;;;;;;5068045;28;20448;-56
2022/02/10 00:34:54;;;;;;;12.25;5.70;;;5.00;99.90;;;;;;5058899;28;20412;-56
2022/02/10 00:37:25;;;;;;;11.55;5.93;;;5.00;99.90;;;;;;5045389;28;20432;-56
2022/02/10 00:42:16;;;;;;;13.32;6.55;;;5.00;99.90;;;;;;5070471;28;20406;-56
2022/02/10 00:44:42;;;;;;;13.40;6.00;;;6.30;99.90;;;;;;5048457;28;20896;-56
2022/02/10 00:47:07;;;;;;;13.17;6.70;;;4.80;99.90;;;;;;5070832;28;20407;-56
2022/02/10 00:49:35;;;;;;;14.18;6.50;;;4.70;99.90;;;;;;5066167;28;20399;-56
2022/02/10 00:52:01;;;;;;;13.98;6.05;;;4.70;99.90;;;;;;5061825;28;20396;-58
2022/02/10 00:54:27;;;;;;;12.30;6.55;;;5.30;99.90;;;;;;5064581;28;20382;-59
2022/02/10 00:56:56;;;;;;;15.27;6.90;;;4.60;99.90;;;;;;5064210;28;20384;-58
2022/02/10 01:00:25;;;;;;;12.45;6.45;;;4.60;99.90;;;;;;5069498;28;20412;-59
2022/02/10 01:10:38;;;;;;;15.73;7.03;;;4.60;99.90;;;;;;5041390;28;20865;-58
2022/02/10 01:13:25;;;;;;;13.18;6.75;;;4.60;99.90;;;;;;5050474;28;21002;-58
2022/02/10 01:29:49;;;;;;;15.05;7.72;;;4.30;99.90;;;;;;5061207;28;20429;-58
2022/02/10 01:32:16;;;;;;;15.13;7.82;;;4.20;99.90;;;;;;5070111;28;20380;-58
2022/02/10 01:34:49;;;;;;;15.98;7.90;;;4.40;99.90;;;;;;5068643;28;20400;-58
2022/02/10 01:37:16;;;;;;;15.20;7.65;;;4.20;99.90;;;;;;5066877;28;20384;-58
2022/02/10 01:39:48;;;;;;;12.80;8.00;;;4.20;99.90;;;;;;5069627;28;20411;-58
2022/02/10 02:04:09;;;;;;;14.48;8.23;;;4.20;99.90;;;;;;5069882;28;20737;-58
2022/02/10 02:06:46;;;;;;;14.03;7.67;;;4.30;99.90;;;;;;5069712;28;20384;-58
2022/02/10 02:09:15;;;;;;;12.23;7.18;;;4.30;99.90;;;;;;5069684;28;20441;-58
2022/02/10 02:11:42;;;;;;;14.13;7.15;;;4.80;99.90;;;;;;5069846;28;20845;-58
2022/02/10 02:14:11;;;;;;;15.27;8.18;;;4.80;99.90;;;;;;5068740;28;20835;-58
2022/02/10 02:16:44;;;;;;;14.27;7.55;;;4.30;99.90;;;;;;5065234;28;20404;-58
2022/02/10 02:19:10;;;;;;;13.68;8.00;;;5.00;99.90;;;;;;5058250;28;20452;-58
2022/02/10 02:21:36;;;;;;;14.43;8.27;;;4.20;99.90;;;;;;5069654;28;20667;-58
2022/02/10 02:24:02;;;;;;;13.35;7.72;;;4.20;99.90;;;;;;5068743;28;20418;-58
2022/02/10 02:26:28;;;;;;;14.27;7.63;;;4.10;99.90;;;;;;5069699;28;20387;-58
2022/02/10 02:28:59;;;;;;;13.10;7.57;;;4.20;99.90;;;;;;5068985;28;20932;-58
2022/02/10 02:31:39;;;;;;;14.10;8.00;;;4.20;99.90;;;;;;5069597;28;20441;-58
2022/02/10 03:06:42;;;;;;;13.50;7.40;;;3.70;99.90;;;;;;5072929;28;20379;-58
2022/02/10 03:09:12;;;;;;;13.00;6.80;;;4.80;99.90;;;;;;5072198;28;20575;-58
2022/02/10 03:11:40;;;;;;;11.30;6.60;;;3.70;99.90;;;;;;5073039;28;20391;-58
2022/02/10 03:14:21;;;;;;;12.40;7.10;;;3.70;99.90;;;;;;5072098;28;20391;-58
2022/02/10 04:13:42;;;;;;;13.32;7.53;;;3.30;99.90;;;;;;5052066;28;20408;-56
2022/02/10 05:22:38;;;;;;;13.23;5.93;;;3.20;99.90;;;;;;5070765;28;20372;-57
2022/02/10 05:33:15;;;;;;;10.20;5.10;;;3.40;99.90;;;;;;5055950;28;20460;-57
2022/02/10 05:35:46;;;;;;;11.73;5.78;;;3.50;99.90;;;;;;5056660;28;20395;-57
2022/02/10 05:38:17;;;;;;;9.00;4.00;;;4.60;99.90;;;;;;5073785;28;20411;-56
2022/02/10 05:57:15;;;;;;;6.10;2.50;;;3.80;99.90;;;;;;5009036;28;20412;-56
2022/02/10 06:39:10;;;;;;;6.22;2.80;;;3.90;99.90;;;;;;5069404;28;20395;-59
2022/02/10 06:54:06;;;;;;;7.53;3.40;;;5.60;99.90;;;;;;5069659;28;20463;-59
2022/02/10 07:10:19;;;;;;;7.15;2.80;;;6.60;99.90;;;;;;5068787;28;20482;-57
2022/02/10 07:51:09;;;;;;;8.30;3.30;;;9.40;99.90;;;;;;5051876;28;20763;-57
2022/02/10 08:55:59;;;;;;;8.50;3.80;;;16.40;90.30;;;;;;5054646;28;20431;-58
2022/02/10 09:01:02;;;;;;;8.13;3.70;;;15.80;90.30;;;;;;5069540;28;20437;-58
2022/02/10 09:03:41;;;;;;;9.00;3.80;;;15.60;91.80;;;;;;5068427;28;20384;-58
2022/02/10 09:09:23;;;;;;;7.30;3.65;;;16.00;89.80;;;;;;5070481;28;20445;-58
2022/02/10 10:02:54;;;;;;;10.65;4.50;;;13.30;94.80;;;;;;5061102;28;20376;-57
2022/02/10 10:08:10;;;;;;;11.13;4.93;;;13.30;95.00;;;;;;5061914;28;20728;-58
2022/02/10 10:10:50;;;;;;;10.13;5.03;;;13.80;94.50;;;;;;5067427;28;20877;-60
2022/02/10 10:18:51;;;;;;;9.80;4.50;;;15.70;93.20;;;;;;5068890;28;20450;-59
2022/02/10 10:54:32;;;;;;;13.00;5.50;;;12.00;99.70;;;;;;5068437;28;20371;-59
2022/02/10 10:57:04;;;;;;;11.87;5.10;;;11.90;99.90;;;;;;5072191;28;20941;-59
2022/02/10 10:59:42;;;;;;;11.13;5.93;;;11.70;99.90;;;;;;5074885;28;20406;-58
2022/02/10 13:23:27;;;;;;;16.55;7.03;;;8.50;99.90;;;;;;5064217;28;20395;-58
2022/02/10 13:35:31;;;;;;;16.05;6.90;;;8.30;99.90;;;;;;5057577;28;20986;-58
2022/02/10 14:13:37;;;;;;;15.40;6.83;;;8.20;99.90;;;;;;5066655;28;20493;-58
2022/02/10 14:17:07;;;;;;;17.05;7.57;;;8.20;99.90;;;;;;5065462;28;20402;-56
2022/02/10 14:19:11;;;;;;;15.15;7.25;;;8.00;99.90;;;;;;5046008;28;20498;-58
2022/02/10 14:21:46;;;;;;;15.90;7.57;;;8.00;99.90;;;;;;5049541;28;20401;-58
2022/02/10 14:26:56;;;;;;;15.00;7.20;;;8.10;99.90;;;;;;5049667;28;20384;-58
2022/02/10 14:29:22;;;;;;;14.38;7.30;;;8.20;99.90;;;;;;5048637;28;21260;-58
2022/02/10 14:31:52;;;;;;;19.00;8.63;;;8.00;99.90;;;;;;5049388;28;20392;-58
2022/02/10 14:34:23;;;;;;;15.87;8.80;;;8.00;99.90;;;;;;5042904;28;20808;-57
2022/02/10 14:36:51;;;;;;;15.63;8.68;;;8.00;99.90;;;;;;5069624;28;20375;-58
2022/02/10 14:39:28;;;;;;;14.07;6.72;;;7.80;99.90;;;;;;5050663;28;20518;-58
2022/02/10 14:42:19;;;;;;;14.90;7.45;;;7.80;99.90;;;;;;5069125;28;20394;-58
2022/02/10 15:18:14;;;;;;;14.18;7.80;;;7.80;99.90;;;;;;5067801;28;20384;-57
2022/02/10 15:46:00;;;;;;;14.52;7.97;;;7.70;99.90;;;;;;5067129;28;20920;-58
2022/02/10 15:56:43;;;;;;;13.15;7.10;;;7.60;99.90;;;;;;5071554;28;20383;-58
2022/02/10 16:17:26;;;;;;;11.10;5.07;;;7.80;99.90;;;;;;5068099;28;21038;-57
2022/02/10 16:19:53;;;;;;;11.90;5.40;;;7.80;99.90;;;;;;5070443;28;20412;-57
2022/02/10 16:24:51;;;;;;;11.60;4.53;;;7.80;99.90;;;;;;5067880;28;20398;-57
2022/02/10 16:27:23;;;;;;;9.50;4.30;;;7.90;99.90;;;;;;5051800;28;20387;-57
2022/02/10 16:29:53;;;;;;;10.82;4.63;;;8.10;99.90;;;;;;5061542;28;20514;-57
2022/02/10 16:32:19;;;;;;;9.30;4.07;;;8.00;99.90;;;;;;5044424;28;20411;-58
2022/02/10 16:34:44;;;;;;;8.68;4.30;;;8.00;99.90;;;;;;5065418;28;20401;-59
2022/02/10 16:37:11;;;;;;;9.10;4.60;;;7.90;99.90;;;;;;5072425;28;20465;-57
2022/02/10 16:39:38;;;;;;;8.95;3.83;;;8.00;99.90;;;;;;5070073;28;20431;-58
2022/02/10 16:42:06;;;;;;;10.38;4.60;;;8.50;99.90;;;;;;5067889;28;20893;-57
2022/02/10 16:44:33;;;;;;;10.23;4.32;;;8.00;99.90;;;;;;5066420;28;20502;-58
2022/02/10 16:47:00;;;;;;;9.98;4.13;;;8.00;99.90;;;;;;5060039;28;20405;-59
2022/02/10 16:49:27;;;;;;;8.32;3.75;;;8.00;99.90;;;;;;5059910;28;20723;-58
2022/02/10 16:51:57;;;;;;;10.90;4.50;;;8.00;99.90;;;;;;5050354;28;20449;-56
2022/02/10 16:54:34;;;;;;;9.40;4.30;;;7.90;99.90;;;;;;5064962;28;20400;-58
2022/02/10 16:57:34;;;;;;;9.50;3.97;;;7.90;99.90;;;;;;5065092;28;20878;-57
2022/02/10 17:00:05;;;;;;;9.90;3.70;;;7.80;99.90;;;;;;5061565;28;20461;-58
2022/02/10 17:27:23;;;;;;;14.57;7.60;;;8.40;99.90;;;;;;5060030;28;20402;-58
2022/02/10 17:44:05;;;;;;;10.60;5.13;;;8.30;99.90;;;;;;5061901;28;20486;-57
2022/02/10 17:46:06;;;;;;;12.35;5.20;;;8.30;99.90;;;;;;5057433;28;20881;-58
2022/02/10 17:52:10;;;;;;;10.05;4.57;;;8.40;99.90;;;;;;5083623;28;20403;-59
2022/02/10 17:54:06;;;;;;;11.55;4.80;;;8.20;99.90;;;;;;5055260;28;20400;-58
2022/02/10 17:56:33;;;;;;;12.00;5.22;;;8.10;99.90;;;;;;5047891;28;20445;-58
2022/02/10 17:58:59;;;;;;;11.00;5.20;;;8.00;99.90;;;;;;5065557;28;20507;-58
2022/02/10 18:01:26;;;;;;;10.63;4.85;;;7.90;99.90;;;;;;5066462;28;20471;-58
2022/02/10 18:03:53;;;;;;;9.75;4.80;;;8.00;99.90;;;;;;5063300;28;20399;-57
2022/02/10 18:06:22;;;;;;;12.50;5.40;;;8.10;99.90;;;;;;5064849;28;20395;-58
2022/02/10 18:12:23;;;;;;;9.23;4.93;;;8.70;99.90;;;;;;5066497;28;20450;-58
2022/02/10 18:14:34;;;;;;;10.55;4.90;;;8.20;99.90;;;;;;5068059;28;20856;-58
2022/02/10 18:17:10;;;;;;;9.55;4.60;;;8.00;99.90;;;;;;5055778;28;20778;-58
2022/02/10 18:19:45;;;;;;;9.90;4.70;;;7.90;99.90;;;;;;5065250;28;20420;-58
2022/02/10 18:25:07;;;;;;;9.60;4.35;;;7.60;99.90;;;;;;5065741;28;20391;-58
2022/02/10 18:27:40;;;;;;;9.00;4.22;;;7.70;99.90;;;;;;5059445;28;20773;-58
2022/02/10 19:01:44;;;;;;;8.30;3.33;;;7.20;99.90;;;;;;5065615;28;20469;-58
2022/02/10 19:10:14;;;;;;;6.87;3.00;;;6.90;99.90;;;;;;5070057;28;20391;-59
2022/02/10 19:12:47;;;;;;;7.95;3.08;;;6.90;99.90;;;;;;5066843;28;20444;-58
2022/02/10 19:15:23;;;;;;;8.80;3.40;;;7.00;99.90;;;;;;5065382;28;20399;-59
2022/02/10 19:17:50;;;;;;;8.20;3.40;;;7.00;99.90;;;;;;5068555;28;20411;-58
2022/02/10 19:20:21;;;;;;;8.10;3.40;;;7.00;99.90;;;;;;5071148;28;20494;-58
2022/02/10 19:22:48;;;;;;;8.48;3.70;;;7.00;99.90;;;;;;5072337;28;20884;-58
2022/02/10 19:25:14;;;;;;;7.88;3.50;;;6.90;99.90;;;;;;5071100;28;20407;-61
2022/02/10 19:27:41;;;;;;;9.73;3.80;;;6.80;99.90;;;;;;5071663;28;20403;-58
2022/02/10 19:30:10;;;;;;;8.80;3.73;;;6.80;99.90;;;;;;5073943;28;20398;-58
2022/02/10 19:32:40;;;;;;;7.55;3.60;;;6.80;99.90;;;;;;5073437;28;20393;-58
2022/02/10 19:35:06;;;;;;;9.02;3.50;;;6.80;99.90;;;;;;5071522;28;20445;-58
2022/02/10 19:37:32;;;;;;;9.70;3.67;;;6.70;99.90;;;;;;5051896;28;20405;-58
2022/02/10 19:40:01;;;;;;;9.13;4.25;;;6.70;99.90;;;;;;5049253;28;20551;-58
2022/02/10 19:42:33;;;;;;;10.10;4.90;;;6.80;99.90;;;;;;5068123;28;20407;-58
2022/02/10 19:45:00;;;;;;;10.25;5.20;;;6.90;99.90;;;;;;5053515;28;20395;-58
2022/02/10 19:47:27;;;;;;;9.80;4.60;;;6.80;99.90;;;;;;5069093;28;20407;-57
2022/02/10 19:49:53;;;;;;;11.77;4.70;;;6.80;99.90;;;;;;5071628;28;20423;-57
2022/02/10 19:52:20;;;;;;;8.60;4.50;;;6.80;99.90;;;;;;5074353;28;20566;-58
2022/02/10 19:54:49;;;;;;;9.88;5.22;;;6.80;99.90;;;;;;5069870;28;20522;-58
2022/02/10 19:57:17;;;;;;;10.00;4.90;;;6.90;99.90;;;;;;5065710;28;20474;-57
2022/02/10 19:59:44;;;;;;;10.23;4.60;;;6.80;99.90;;;;;;5066878;28;20419;-59
2022/02/10 20:02:10;;;;;;;9.68;4.68;;;6.80;99.90;;;;;;5069251;28;20388;-59
2022/02/10 20:04:36;;;;;;;12.43;4.80;;;6.80;99.90;;;;;;5071222;28;20378;-58
2022/02/10 20:07:02;;;;;;;8.63;4.23;;;6.80;99.90;;;;;;5070644;28;20402;-57
2022/02/10 20:09:28;;;;;;;10.00;4.50;;;6.80;99.90;;;;;;5065945;28;20419;-57
2022/02/10 20:11:55;;;;;;;8.32;3.80;;;6.90;99.90;;;;;;5069022;28;20407;-57
2022/02/10 20:14:23;;;;;;;9.30;4.80;;;6.90;99.90;;;;;;5069202;28;20388;-58
2022/02/10 20:16:50;;;;;;;11.30;5.00;;;6.90;99.90;;;;;;5070204;28;20392;-58
2022/02/10 20:19:16;;;;;;;10.35;5.20;;;7.00;99.90;;;;;;5057117;28;20419;-58
2022/02/10 20:21:43;;;;;;;12.60;5.20;;;7.00;99.90;;;;;;5050341;28;20369;-58
2022/02/10 20:24:09;;;;;;;11.75;5.65;;;7.00;99.90;;;;;;5047518;28;20405;-57
2022/02/10 20:26:35;;;;;;;11.37;5.53;;;7.00;99.90;;;;;;5046737;28;20413;-58
2022/02/10 20:29:00;;;;;;;10.52;5.18;;;7.00;99.90;;;;;;5049827;28;20418;-58
2022/02/10 20:31:29;;;;;;;10.48;5.00;;;7.00;99.90;;;;;;5050199;28;20393;-58
2022/02/10 20:33:54;;;;;;;9.88;4.82;;;6.90;99.90;;;;;;5049653;28;20385;-57
2022/02/10 20:36:20;;;;;;;9.17;4.50;;;6.90;99.90;;;;;;5046403;28;20459;-58
2022/02/10 20:38:49;;;;;;;11.30;4.90;;;6.80;99.90;;;;;;5047354;28;20426;-58
2022/02/10 20:41:17;;;;;;;10.07;4.65;;;6.80;99.90;;;;;;5049348;28;20378;-58
2022/02/10 20:43:48;;;;;;;11.27;4.90;;;6.80;99.90;;;;;;5049510;28;20865;-58
2022/02/10 20:46:16;;;;;;;10.10;4.60;;;6.80;99.90;;;;;;5050298;28;20394;-57
2022/02/10 20:48:43;;;;;;;8.48;4.30;;;6.90;99.90;;;;;;5049554;28;21302;-57
2022/02/10 20:51:12;;;;;;;11.40;4.68;;;6.90;99.90;;;;;;5048473;28;21147;-57
2022/02/10 20:53:43;;;;;;;9.67;5.00;;;7.00;99.90;;;;;;5045203;28;20855;-57
2022/02/10 20:56:12;;;;;;;10.45;4.80;;;6.90;99.90;;;;;;5050422;28;20457;-58
2022/02/10 20:58:40;;;;;;;10.40;4.78;;;6.80;99.90;;;;;;5048588;28;20811;-59
2022/02/10 21:01:09;;;;;;;11.88;5.10;;;6.80;99.90;;;;;;5051749;28;20879;-57
2022/02/10 21:03:36;;;;;;;11.32;5.25;;;7.00;99.90;;;;;;5052545;28;20790;-57
2022/02/10 21:11:15;;;;;;;10.35;4.60;;;7.00;99.90;;;;;;5048173;28;20379;-57
2022/02/10 21:13:40;;;;;;;9.68;4.50;;;7.10;99.90;;;;;;5044511;28;20468;-58
2022/02/10 21:16:06;;;;;;;9.20;4.30;;;7.20;99.90;;;;;;5047166;28;20845;-58
2022/02/10 21:18:33;;;;;;;10.02;4.78;;;7.20;99.90;;;;;;5051158;28;20505;-58
2022/02/10 21:21:04;;;;;;;9.20;4.30;;;7.10;99.90;;;;;;5048253;28;20444;-58
2022/02/10 21:24:14;;;;;;;11.88;4.90;;;7.20;99.90;;;;;;5045269;28;20472;-58
2022/02/10 21:26:20;;;;;;;10.23;4.70;;;7.30;99.90;;;;;;5041290;28;20859;-58
2022/02/10 21:28:48;;;;;;;9.10;4.70;;;7.20;99.90;;;;;;5040895;28;20535;-59
2022/02/10 21:31:13;;;;;;;11.85;4.80;;;7.20;99.90;;;;;;5029314;28;20403;-57
2022/02/10 21:38:44;;;;;;;9.25;4.80;;;7.50;99.90;;;;;;5039643;28;20420;-57
2022/02/10 21:44:56;;;;;;;9.67;4.40;;;7.40;99.90;;;;;;5047645;28;20864;-57
2022/02/10 21:59:53;;;;;;;8.68;4.55;;;7.80;99.90;;;;;;5043167;28;20474;-57
2022/02/10 22:21:30;;;;;;;9.10;4.40;;;8.00;99.90;;;;;;5007120;28;20451;-57
2022/02/10 22:23:56;;;;;;;9.52;4.72;;;8.00;99.90;;;;;;5001624;28;20394;-57
2022/02/10 22:26:29;;;;;;;9.90;4.50;;;8.00;99.90;;;;;;5035629;28;20405;-57
2022/02/10 22:29:01;;;;;;;8.88;4.05;;;8.00;99.90;;;;;;5064369;28;20389;-58
2022/02/10 22:34:25;;;;;;;10.80;4.70;;;8.00;99.90;;;;;;5066013;28;20493;-58
2022/02/10 22:36:56;;;;;;;10.10;4.65;;;8.00;99.90;;;;;;5055244;28;20789;-58
2022/02/10 22:39:22;;;;;;;10.00;4.60;;;7.90;99.90;;;;;;5067050;28;20420;-59
2022/02/10 22:41:48;;;;;;;8.70;4.30;;;7.90;99.90;;;;;;5073893;28;20376;-56
2022/02/10 22:44:14;;;;;;;9.25;4.10;;;7.90;99.90;;;;;;5070019;28;20506;-57
2022/02/10 22:46:40;;;;;;;8.50;4.05;;;7.90;99.90;;;;;;5065047;28;21274;-58
2022/02/10 22:49:06;;;;;;;8.85;4.20;;;7.90;99.90;;;;;;5062183;28;20487;-58
2022/02/10 22:51:34;;;;;;;10.65;4.28;;;8.00;99.90;;;;;;5063954;28;20384;-58
2022/02/10 22:54:01;;;;;;;9.40;4.50;;;8.00;99.90;;;;;;5070677;28;20385;-58
2022/02/10 22:56:29;;;;;;;10.52;4.85;;;8.00;99.90;;;;;;5064796;28;20411;-58
2022/02/10 22:59:08;;;;;;;9.70;4.70;;;7.90;99.90;;;;;;5070024;28;20415;-58
2022/02/10 23:01:36;;;;;;;10.13;5.30;;;7.80;99.90;;;;;;5069392;28;20502;-56
2022/02/10 23:04:02;;;;;;;12.52;5.03;;;7.60;99.90;;;;;;5068285;28;20382;-56
2022/02/10 23:06:27;;;;;;;10.50;5.22;;;8.50;99.90;;;;;;5063525;28;20798;-56
2022/02/10 23:08:54;;;;;;;10.90;5.57;;;7.60;99.90;;;;;;5065680;28;20381;-56
2022/02/10 23:11:30;;;;;;;15.23;5.60;;;7.80;99.90;;;;;;5064073;28;20449;-57
2022/02/10 23:14:00;;;;;;;11.30;5.00;;;7.80;99.90;;;;;;5075736;28;20419;-58
2022/02/10 23:16:28;;;;;;;10.02;5.60;;;7.80;99.90;;;;;;5065456;28;20403;-57
2022/02/10 23:18:55;;;;;;;11.57;5.78;;;7.80;99.90;;;;;;5073825;28;20412;-56
2022/02/10 23:21:21;;;;;;;10.77;5.55;;;7.80;99.90;;;;;;5067618;28;20734;-57
2022/02/10 23:23:49;;;;;;;11.47;5.47;;;7.80;99.90;;;;;;5073908;28;20395;-58
2022/02/10 23:26:18;;;;;;;10.80;5.80;;;7.80;99.90;;;;;;5071359;28;20408;-58
2022/02/10 23:28:47;;;;;;;12.15;5.75;;;7.70;99.90;;;;;;5067790;28;20866;-58
2022/02/10 23:31:15;;;;;;;9.60;5.40;;;7.70;99.90;;;;;;5064549;28;20616;-58
2022/02/10 23:33:43;;;;;;;13.40;6.40;;;7.70;99.90;;;;;;5068007;28;20391;-58
2022/02/10 23:38:48;;;;;;;10.55;6.10;;;7.60;99.90;;;;;;5071791;28;20380;-58
2022/02/10 23:43:40;;;;;;;12.45;5.70;;;7.50;99.90;;;;;;5071370;28;20419;-57
2022/02/10 23:46:06;;;;;;;11.70;5.90;;;9.20;99.90;;;;;;5072482;28;20407;-57
2022/02/10 23:48:33;;;;;;;11.10;6.20;;;7.60;99.90;;;;;;5064402;28;20481;-57
2022/02/10 23:50:59;;;;;;;12.80;6.57;;;7.60;99.90;;;;;;5060080;28;20382;-57
2022/02/10 23:53:27;;;;;;;12.88;6.15;;;7.50;99.90;;;;;;5051619;28;20413;-58
2022/02/10 23:55:52;;;;;;;13.25;6.45;;;7.50;99.90;;;;;;5052164;28;20389;-57
